createdAt,value
2023-01-06T00:01:53.835Z,19.23
2023-01-06T00:04:22.195Z,20.67
2023-01-06T00:06:51.941Z,20.90
2023-01-06T00:09:20.532Z,18.83
2023-01-06T00:11:48.872Z,19.92
2023-01-06T00:14:17.223Z,19.50
2023-01-06T00:16:45.475Z,19.52
2023-01-06T00:19:13.835Z,18.15
2023-01-06T00:21:42.961Z,16.92
2023-01-06T00:24:13.035Z,15.75
2023-01-06T00:26:41.346Z,17.58
2023-01-06T00:29:11.635Z,17.38
2023-01-06T00:31:39.968Z,16.42
2023-01-06T00:34:12.100Z,16.30
2023-01-06T00:36:42.286Z,16.80
2023-01-06T00:39:14.880Z,16.48
2023-01-06T00:42:00.643Z,17.42
2023-01-06T00:44:28.999Z,17.17
2023-01-06T00:46:57.467Z,17.70
2023-01-06T00:49:25.728Z,17.58
2023-01-06T00:51:54.462Z,19.42
2023-01-06T00:54:24.277Z,17.80
2023-01-06T00:56:54.928Z,19.02
2023-01-06T00:59:24.862Z,18.83
2023-01-06T01:01:56.031Z,20.13
2023-01-06T01:04:25.884Z,20.15
2023-01-06T01:06:55.446Z,20.20
2023-01-06T01:09:27.386Z,20.45
2023-01-06T01:12:14.259Z,20.10
2023-01-06T01:14:46.445Z,19.70
2023-01-06T01:17:16.543Z,20.90
2023-01-06T01:19:44.951Z,17.65
2023-01-06T01:22:13.218Z,20.38
2023-01-06T01:24:43.068Z,19.73
2023-01-06T01:27:13.758Z,19.45
2023-01-06T01:29:42.083Z,20.00
2023-01-06T01:32:10.641Z,19.35
2023-01-06T01:34:38.981Z,19.50
2023-01-06T01:37:07.309Z,20.33
2023-01-06T01:39:35.590Z,20.00
2023-01-06T01:42:11.271Z,19.75
2023-01-06T01:45:02.728Z,20.23
2023-01-06T01:47:40.433Z,20.10
2023-01-06T01:50:21.996Z,19.88
2023-01-06T01:52:52.847Z,20.10
2023-01-06T01:55:22.492Z,19.40
2023-01-06T01:57:55.892Z,20.20
2023-01-06T02:00:24.284Z,19.90
2023-01-06T02:02:52.749Z,19.10
2023-01-06T02:05:24.861Z,20.08
2023-01-06T02:07:54.438Z,18.73
2023-01-06T02:10:25.499Z,19.30
2023-01-06T02:12:58.437Z,16.33
2023-01-06T02:15:29.331Z,16.63
2023-01-06T02:18:27.067Z,16.20
2023-01-06T02:21:20.715Z,15.55
2023-01-06T02:24:22.668Z,15.40
2023-01-06T02:27:31.121Z,14.88
2023-01-06T02:30:36.770Z,15.25
2023-01-06T02:33:19.920Z,13.85
2023-01-06T02:35:59.802Z,15.02
2023-01-06T02:38:41.547Z,14.82
2023-01-06T02:41:29.208Z,15.23
2023-01-06T02:44:04.364Z,14.05
2023-01-06T02:46:55.450Z,12.80
2023-01-06T02:49:33.314Z,12.77
2023-01-06T02:52:09.365Z,12.15
2023-01-06T02:54:51.076Z,12.05
2023-01-06T02:57:24.872Z,11.10
2023-01-06T03:00:01.351Z,9.50
2023-01-06T03:02:33.413Z,11.20
2023-01-06T03:05:06.607Z,11.70
2023-01-06T03:07:36.004Z,10.68
2023-01-06T03:10:06.323Z,10.23
2023-01-06T03:12:42.948Z,9.85
2023-01-06T03:15:12.678Z,8.98
2023-01-06T03:17:41.119Z,9.93
2023-01-06T03:20:12.661Z,8.90
2023-01-06T03:22:42.076Z,9.38
2023-01-06T03:25:11.626Z,8.57
2023-01-06T03:27:40.345Z,8.70
2023-01-06T03:30:12.025Z,8.68
2023-01-06T03:32:49.039Z,8.65
2023-01-06T03:35:31.934Z,7.82
2023-01-06T03:38:06.375Z,8.65
2023-01-06T03:40:40.505Z,8.00
2023-01-06T03:43:25.654Z,7.13
2023-01-06T03:46:09.296Z,7.90
2023-01-06T03:48:53.557Z,7.45
2023-01-06T03:51:38.086Z,7.22
2023-01-06T03:54:15.092Z,7.65
2023-01-06T03:56:48.614Z,7.30
2023-01-06T03:59:21.868Z,6.70
2023-01-06T04:01:52.095Z,6.90
2023-01-06T04:04:22.417Z,6.75
2023-01-06T04:06:52.299Z,6.53
2023-01-06T04:09:21.286Z,6.35
2023-01-06T04:12:07.210Z,6.68
2023-01-06T04:14:38.733Z,6.30
2023-01-06T04:17:07.663Z,6.85
2023-01-06T04:19:36.329Z,5.97
2023-01-06T04:22:06.159Z,6.85
2023-01-06T04:24:35.179Z,6.45
2023-01-06T04:27:03.590Z,6.18
2023-01-06T04:29:32.324Z,6.63
2023-01-06T04:32:00.621Z,6.82
2023-01-06T04:34:29.024Z,6.90
2023-01-06T04:36:57.441Z,6.68
2023-01-06T04:39:27.166Z,6.63
2023-01-06T04:41:55.455Z,7.07
2023-01-06T04:44:23.691Z,6.97
2023-01-06T04:46:52.090Z,6.85
2023-01-06T04:49:20.355Z,7.40
2023-01-06T04:51:48.682Z,8.15
2023-01-06T04:54:17.029Z,9.25
2023-01-06T04:56:46.737Z,9.38
2023-01-06T04:59:15.056Z,9.73
2023-01-06T05:01:43.345Z,10.85
2023-01-06T05:04:11.883Z,10.98
2023-01-06T05:06:40.731Z,11.52
2023-01-06T05:09:09.197Z,12.20
2023-01-06T05:11:37.490Z,11.82
2023-01-06T05:14:07.167Z,11.93
2023-01-06T05:16:36.162Z,12.07
2023-01-06T05:19:04.635Z,11.30
2023-01-06T05:21:33.180Z,11.88
2023-01-06T05:24:02.025Z,10.88
2023-01-06T05:26:30.610Z,10.98
2023-01-06T05:28:58.910Z,11.02
2023-01-06T05:31:28.686Z,11.15
2023-01-06T05:33:56.950Z,10.93
2023-01-06T05:36:25.234Z,10.40
2023-01-06T05:38:54.544Z,11.13
2023-01-06T05:41:23.177Z,10.48
2023-01-06T05:43:51.486Z,9.75
2023-01-06T05:46:19.894Z,10.10
2023-01-06T05:48:49.536Z,8.80
2023-01-06T05:51:18.259Z,9.60
2023-01-06T05:53:48.216Z,9.35
2023-01-06T05:56:18.662Z,9.50
2023-01-06T05:58:48.863Z,8.40
2023-01-06T06:01:19.906Z,8.93
2023-01-06T06:03:49.890Z,7.70
2023-01-06T06:06:19.075Z,7.80
2023-01-06T06:08:47.485Z,7.22
2023-01-06T06:11:18.278Z,7.18
2023-01-06T06:13:47.696Z,6.90
2023-01-06T06:16:17.654Z,6.10
2023-01-06T06:18:49.281Z,6.40
2023-01-06T06:21:20.909Z,5.95
2023-01-06T06:23:49.665Z,5.70
2023-01-06T06:26:17.960Z,5.85
2023-01-06T06:28:46.316Z,5.63
2023-01-06T06:31:17.887Z,6.03
2023-01-06T06:33:46.313Z,5.60
2023-01-06T06:36:16.169Z,4.18
2023-01-06T06:38:47.560Z,5.63
2023-01-06T06:41:16.374Z,5.70
2023-01-06T06:43:44.960Z,5.25
2023-01-06T06:46:13.539Z,6.05
2023-01-06T06:48:41.795Z,4.95
2023-01-06T06:51:11.775Z,6.10
2023-01-06T06:53:40.984Z,6.05
2023-01-06T06:56:11.665Z,6.13
2023-01-06T06:58:40.593Z,6.05
2023-01-06T07:01:10.873Z,6.95
2023-01-06T07:03:39.310Z,6.75
2023-01-06T07:06:09.375Z,5.93
2023-01-06T07:08:38.597Z,5.80
2023-01-06T07:11:06.968Z,6.25
2023-01-06T07:13:36.629Z,6.13
2023-01-06T07:16:08.963Z,6.88
2023-01-06T07:18:37.642Z,5.57
2023-01-06T07:21:09.070Z,5.80
2023-01-06T07:23:37.506Z,5.80
2023-01-06T07:26:06.185Z,5.60
2023-01-06T07:28:34.621Z,5.85
2023-01-06T07:31:04.441Z,5.45
2023-01-06T07:33:32.795Z,5.20
2023-01-06T07:36:01.061Z,5.50
2023-01-06T07:38:29.329Z,5.78
2023-01-06T07:41:01.412Z,5.75
2023-01-06T07:43:29.856Z,7.00
2023-01-06T07:45:58.200Z,5.43
2023-01-06T07:48:27.799Z,5.68
2023-01-06T07:50:56.082Z,6.43
2023-01-06T07:53:24.426Z,5.43
2023-01-06T07:55:53.657Z,5.35
2023-01-06T07:58:24.057Z,5.47
2023-01-06T08:00:52.587Z,5.68
2023-01-06T08:03:20.973Z,4.47
2023-01-06T08:05:50.882Z,5.60
2023-01-06T08:08:19.174Z,4.00
2023-01-06T08:10:47.461Z,3.95
2023-01-06T08:13:15.922Z,0.45
2023-01-06T08:15:44.292Z,0.45
2023-01-06T08:18:12.588Z,0.90
2023-01-06T08:20:40.807Z,0.38
2023-01-06T08:23:10.525Z,0.55
2023-01-06T08:25:38.764Z,0.05
2023-01-06T08:28:07.075Z,0.35
2023-01-06T08:30:40.038Z,0.52
2023-01-06T08:33:08.407Z,0.82
2023-01-06T08:35:36.821Z,0.10
2023-01-06T08:38:05.083Z,0.38
2023-01-06T08:40:34.846Z,0.10
2023-01-06T08:43:03.117Z,0.25
2023-01-06T08:45:31.431Z,0.30
2023-01-06T08:47:59.775Z,0.17
2023-01-06T08:50:28.079Z,0.38
2023-01-06T08:52:56.364Z,0.10
2023-01-06T08:55:24.641Z,0.25
2023-01-06T08:57:55.146Z,0.10
2023-01-06T09:00:23.900Z,0.17
2023-01-06T09:02:52.279Z,0.40
2023-01-06T09:05:20.672Z,0.00
2023-01-06T09:07:50.721Z,0.00
2023-01-06T09:10:19.983Z,0.30
2023-01-06T09:12:48.589Z,0.63
2023-01-06T09:15:18.379Z,0.35
2023-01-06T09:17:46.694Z,0.00
2023-01-06T09:20:14.954Z,0.43
2023-01-06T09:22:43.228Z,0.05
2023-01-06T09:25:11.465Z,0.00
2023-01-06T09:27:39.784Z,0.20
2023-01-06T09:30:09.388Z,0.08
2023-01-06T09:32:39.023Z,0.00
2023-01-06T09:35:08.607Z,0.28
2023-01-06T09:37:36.917Z,0.17
2023-01-06T09:40:06.291Z,0.05
2023-01-06T09:42:49.414Z,0.00
2023-01-06T09:45:20.510Z,0.00
2023-01-06T09:47:55.594Z,0.40
2023-01-06T09:50:33.459Z,0.00
2023-01-06T09:53:04.663Z,0.00
2023-01-06T09:55:36.475Z,0.40
2023-01-06T09:58:09.392Z,0.20
2023-01-06T10:00:41.255Z,0.00
2023-01-06T10:03:15.336Z,0.05
2023-01-06T10:05:57.378Z,0.10
2023-01-06T10:08:34.929Z,0.00
2023-01-06T10:11:13.719Z,0.10
2023-01-06T10:13:58.616Z,0.00
2023-01-06T10:16:37.775Z,0.00
2023-01-06T10:19:20.469Z,0.00
2023-01-06T10:21:58.885Z,0.03
2023-01-06T10:24:38.376Z,0.45
2023-01-06T10:27:19.210Z,0.30
2023-01-06T10:29:50.031Z,0.10
2023-01-06T10:32:18.945Z,1.42
2023-01-06T10:34:50.714Z,1.52
2023-01-06T10:37:24.138Z,1.65
2023-01-06T10:40:15.372Z,1.38
2023-01-06T10:42:57.824Z,1.13
2023-01-06T10:45:29.382Z,1.48
2023-01-06T10:47:58.597Z,1.30
2023-01-06T10:50:29.052Z,1.75
2023-01-06T10:52:57.697Z,1.67
2023-01-06T10:55:45.254Z,1.50
2023-01-06T10:58:21.604Z,1.60
2023-01-06T11:00:58.109Z,1.70
2023-01-06T11:03:35.078Z,1.55
2023-01-06T11:06:09.376Z,1.25
2023-01-06T11:08:38.923Z,1.83
2023-01-06T11:11:28.565Z,1.75
2023-01-06T11:14:00.183Z,1.63
2023-01-06T11:16:31.499Z,1.92
2023-01-06T11:19:03.909Z,1.70
2023-01-06T11:21:42.312Z,2.10
2023-01-06T11:24:18.882Z,1.73
2023-01-06T11:26:52.228Z,1.55
2023-01-06T11:29:28.814Z,1.75
2023-01-06T11:31:58.763Z,1.88
2023-01-06T11:34:30.134Z,1.67
2023-01-06T11:37:01.444Z,1.52
2023-01-06T11:39:34.396Z,1.90
2023-01-06T11:42:12.944Z,1.73
2023-01-06T11:44:43.787Z,1.60
2023-01-06T11:47:16.550Z,1.83
2023-01-06T11:49:49.679Z,1.95
2023-01-06T11:52:25.137Z,1.80
2023-01-06T11:55:02.746Z,1.60
2023-01-06T11:57:39.531Z,1.67
2023-01-06T12:00:26.349Z,1.80
2023-01-06T12:03:04.768Z,1.98
2023-01-06T12:05:39.996Z,1.58
2023-01-06T12:08:15.842Z,1.80
2023-01-06T12:10:46.486Z,1.88
2023-01-06T12:13:15.534Z,1.83
2023-01-06T12:15:47.240Z,1.63
2023-01-06T12:18:19.701Z,2.38
2023-01-06T12:20:50.846Z,1.90
2023-01-06T12:23:25.308Z,1.90
2023-01-06T12:25:57.459Z,1.80
2023-01-06T12:28:28.386Z,2.30
2023-01-06T12:31:02.475Z,2.20
2023-01-06T12:33:37.274Z,1.75
2023-01-06T12:36:12.398Z,1.77
2023-01-06T12:38:49.938Z,1.88
2023-01-06T12:41:25.816Z,1.65
2023-01-06T12:44:01.701Z,1.65
2023-01-06T12:46:36.697Z,1.83
2023-01-06T12:49:09.856Z,1.75
2023-01-06T12:51:43.179Z,1.88
2023-01-06T12:54:16.527Z,2.05
2023-01-06T12:57:00.445Z,1.73
2023-01-06T12:59:36.467Z,2.35
2023-01-06T13:02:17.699Z,2.10
2023-01-06T13:05:06.383Z,1.95
2023-01-06T13:07:43.812Z,1.75
2023-01-06T13:10:23.960Z,2.05
2023-01-06T13:13:16.561Z,2.30
2023-01-06T13:15:46.802Z,1.95
2023-01-06T13:18:21.602Z,2.15
2023-01-06T13:20:53.414Z,1.88
2023-01-06T13:23:32.737Z,2.30
2023-01-06T13:26:18.769Z,1.73
2023-01-06T13:28:53.991Z,2.00
2023-01-06T13:31:40.950Z,2.10
2023-01-06T13:34:35.098Z,1.88
2023-01-06T13:37:37.876Z,1.83
2023-01-06T13:40:12.928Z,1.80
2023-01-06T13:42:51.504Z,1.80
2023-01-06T13:45:23.063Z,1.80
2023-01-06T13:47:52.375Z,1.90
2023-01-06T13:50:22.977Z,2.08
2023-01-06T13:52:52.669Z,1.90
2023-01-06T13:55:30.249Z,2.33
2023-01-06T13:58:38.225Z,1.67
2023-01-06T14:01:08.785Z,1.92
2023-01-06T14:03:38.130Z,2.28
2023-01-06T14:06:11.167Z,2.13
2023-01-06T14:08:48.540Z,2.30
2023-01-06T14:11:28.086Z,2.17
2023-01-06T14:13:59.577Z,2.00
2023-01-06T14:16:42.207Z,2.35
2023-01-06T14:19:17.741Z,2.25
2023-01-06T14:21:48.411Z,2.65
2023-01-06T14:24:24.173Z,1.88
2023-01-06T14:26:58.385Z,1.83
2023-01-06T14:29:48.829Z,2.08
2023-01-06T14:32:53.903Z,2.80
2023-01-06T14:35:29.221Z,2.10
2023-01-06T14:38:01.022Z,1.90
2023-01-06T14:40:32.454Z,2.17
2023-01-06T14:43:04.054Z,1.98
2023-01-06T14:45:39.994Z,2.20
2023-01-06T14:48:14.559Z,1.90
2023-01-06T14:50:47.334Z,1.90
2023-01-06T14:53:23.350Z,2.25
2023-01-06T14:55:52.788Z,1.50
2023-01-06T14:58:32.025Z,1.98
2023-01-06T15:01:03.157Z,2.33
2023-01-06T15:03:32.626Z,2.20
2023-01-06T15:06:12.514Z,1.98
2023-01-06T15:08:40.846Z,1.65
2023-01-06T15:11:25.172Z,2.05
2023-01-06T15:13:53.642Z,2.30
2023-01-06T15:16:32.980Z,1.92
2023-01-06T15:19:02.047Z,2.20
2023-01-06T15:21:30.542Z,1.98
2023-01-06T15:23:59.191Z,2.20
2023-01-06T15:26:29.370Z,2.00
2023-01-06T15:29:03.038Z,2.20
2023-01-06T15:31:35.233Z,2.10
2023-01-06T15:34:08.628Z,2.20
2023-01-06T15:36:40.853Z,1.98
2023-01-06T15:39:14.812Z,1.92
2023-01-06T15:41:44.332Z,2.45
2023-01-06T15:44:31.422Z,1.85
2023-01-06T15:47:17.255Z,1.63
2023-01-06T15:49:53.462Z,1.98
2023-01-06T15:52:26.783Z,1.80
2023-01-06T15:54:57.868Z,1.77
2023-01-06T15:57:27.663Z,2.10
2023-01-06T15:59:58.485Z,1.90
2023-01-06T16:02:31.980Z,2.40
2023-01-06T16:05:01.588Z,2.47
2023-01-06T16:07:39.400Z,2.72
2023-01-06T16:10:33.501Z,1.90
2023-01-06T16:13:26.977Z,2.05
2023-01-06T16:16:00.860Z,2.05
2023-01-06T16:18:33.917Z,2.17
2023-01-06T16:21:15.947Z,2.15
2023-01-06T16:23:49.890Z,2.05
2023-01-06T16:26:20.434Z,2.28
2023-01-06T16:28:51.275Z,2.10
2023-01-06T16:31:31.511Z,2.05
2023-01-06T16:34:25.494Z,2.42
2023-01-06T16:36:56.549Z,2.25
2023-01-06T16:39:24.949Z,2.20
2023-01-06T16:42:36.035Z,2.17
2023-01-06T16:45:09.580Z,1.95
2023-01-06T16:47:37.886Z,2.40
2023-01-06T16:50:16.931Z,3.10
2023-01-06T16:52:47.720Z,3.30
2023-01-06T16:55:17.653Z,3.95
2023-01-06T16:57:49.859Z,3.08
2023-01-06T17:00:21.062Z,3.15
2023-01-06T17:02:50.891Z,2.80
2023-01-06T17:05:29.362Z,2.60
2023-01-06T17:08:01.567Z,2.30
2023-01-06T17:10:30.698Z,3.35
2023-01-06T17:13:19.815Z,2.22
2023-01-06T17:15:51.670Z,2.10
2023-01-06T17:18:24.487Z,2.20
2023-01-06T17:20:59.440Z,2.10
2023-01-06T17:23:28.073Z,2.30
2023-01-06T17:26:01.837Z,2.22
2023-01-06T17:28:33.774Z,1.92
2023-01-06T17:31:02.548Z,2.53
2023-01-06T17:33:31.602Z,2.70
2023-01-06T17:36:03.000Z,3.05
2023-01-06T17:38:32.263Z,3.58
2023-01-06T17:41:00.861Z,6.68
2023-01-06T17:43:33.514Z,4.03
2023-01-06T17:46:03.424Z,2.78
2023-01-06T17:48:33.145Z,3.25
2023-01-06T17:51:02.831Z,2.75
2023-01-06T17:53:51.312Z,2.80
2023-01-06T17:56:22.422Z,3.38
2023-01-06T17:58:51.050Z,3.05
2023-01-06T18:01:24.970Z,3.47
2023-01-06T18:03:54.884Z,2.38
2023-01-06T18:06:27.372Z,2.85
2023-01-06T18:09:11.040Z,2.53
2023-01-06T18:11:41.267Z,3.10
2023-01-06T18:14:32.276Z,2.88
2023-01-06T18:17:09.351Z,3.00
2023-01-06T18:19:39.009Z,2.95
2023-01-06T18:22:16.992Z,3.75
2023-01-06T18:24:47.043Z,4.03
2023-01-06T18:27:20.632Z,3.60
2023-01-06T18:29:48.869Z,3.75
2023-01-06T18:32:29.259Z,3.40
2023-01-06T18:34:59.204Z,3.70
2023-01-06T18:37:31.121Z,3.20
2023-01-06T18:40:01.768Z,3.55
2023-01-06T18:42:32.128Z,3.42
2023-01-06T18:45:18.332Z,3.58
2023-01-06T18:47:52.026Z,3.63
2023-01-06T18:50:36.973Z,4.13
2023-01-06T18:53:19.586Z,3.10
2023-01-06T18:55:51.223Z,3.60
2023-01-06T18:58:42.478Z,3.70
2023-01-06T19:01:19.723Z,4.28
2023-01-06T19:04:05.292Z,3.90
2023-01-06T19:06:39.885Z,4.03
2023-01-06T19:09:22.595Z,3.92
2023-01-06T19:11:59.747Z,4.40
2023-01-06T19:14:30.903Z,4.40
2023-01-06T19:17:00.402Z,4.45
2023-01-06T19:19:35.200Z,4.40
2023-01-06T19:22:20.203Z,4.65
2023-01-06T19:24:53.401Z,3.90
2023-01-06T19:27:46.874Z,4.60
2023-01-06T19:30:39.826Z,4.15
2023-01-06T19:33:39.511Z,3.92
2023-01-06T19:36:43.731Z,4.22
2023-01-06T19:39:35.136Z,4.72
2023-01-06T19:42:17.702Z,4.30
2023-01-06T19:44:50.150Z,4.30
2023-01-06T19:47:20.712Z,4.30
2023-01-06T19:49:53.356Z,3.88
2023-01-06T19:52:37.381Z,4.50
2023-01-06T19:55:30.214Z,3.92
2023-01-06T19:58:03.172Z,3.35
2023-01-06T20:00:32.832Z,3.58
2023-01-06T20:03:03.451Z,3.35
2023-01-06T20:05:32.763Z,3.92
2023-01-06T20:08:00.981Z,3.67
2023-01-06T20:10:29.149Z,10.13
2023-01-06T20:12:57.306Z,4.55
2023-01-06T20:15:26.795Z,3.78
2023-01-06T20:17:54.948Z,4.47
2023-01-06T20:20:23.111Z,4.13
2023-01-06T20:22:51.209Z,4.20
2023-01-06T20:25:19.403Z,4.22
2023-01-06T20:27:47.534Z,3.53
2023-01-06T20:30:15.848Z,5.18
2023-01-06T20:32:45.425Z,10.30
2023-01-06T20:35:15.282Z,5.43
2023-01-06T20:37:43.501Z,5.25
2023-01-06T20:40:12.432Z,4.18
2023-01-06T20:42:40.549Z,14.38
2023-01-06T20:45:09.470Z,7.60
2023-01-06T20:47:37.716Z,9.50
2023-01-06T20:50:08.451Z,6.95
2023-01-06T20:52:36.623Z,4.45
2023-01-06T20:55:04.909Z,5.57
2023-01-06T20:57:33.104Z,5.15
2023-01-06T21:00:01.374Z,5.22
2023-01-06T21:02:29.786Z,5.18
2023-01-06T21:04:58.133Z,5.10
2023-01-06T21:07:27.760Z,4.97
2023-01-06T21:09:55.989Z,6.20
2023-01-06T21:12:24.074Z,12.45
2023-01-06T21:14:52.202Z,9.27
2023-01-06T21:17:20.327Z,7.72
2023-01-06T21:19:48.556Z,8.07
2023-01-06T21:22:16.834Z,8.10
2023-01-06T21:24:46.383Z,11.15
2023-01-06T21:27:14.495Z,9.85
2023-01-06T21:29:42.626Z,11.90
2023-01-06T21:32:10.806Z,7.18
2023-01-06T21:34:38.982Z,6.60
2023-01-06T21:37:07.645Z,8.90
2023-01-06T21:39:35.999Z,6.38
2023-01-06T21:42:23.313Z,5.15
2023-01-06T21:44:51.385Z,5.57
2023-01-06T21:47:21.868Z,5.80
2023-01-06T21:49:50.104Z,8.77
2023-01-06T21:52:18.819Z,7.75
2023-01-06T21:54:47.254Z,6.03
2023-01-06T21:57:16.753Z,5.55
2023-01-06T21:59:45.236Z,6.07
2023-01-06T22:02:15.903Z,6.07
2023-01-06T22:04:44.148Z,6.63
2023-01-06T22:07:12.747Z,5.93
2023-01-06T22:09:43.602Z,5.80
2023-01-06T22:12:15.041Z,6.35
2023-01-06T22:14:45.492Z,6.50
2023-01-06T22:17:23.047Z,6.13
2023-01-06T22:19:55.034Z,6.15
2023-01-06T22:22:24.121Z,6.30
2023-01-06T22:24:54.553Z,6.05
2023-01-06T22:27:23.593Z,6.07
2023-01-06T22:29:53.115Z,7.30
2023-01-06T22:32:21.802Z,9.10
2023-01-06T22:34:49.893Z,13.63
2023-01-06T22:37:18.013Z,11.88
2023-01-06T22:39:46.705Z,8.30
2023-01-06T22:42:14.932Z,7.20
2023-01-06T22:44:43.027Z,6.63
2023-01-06T22:47:12.527Z,6.43
2023-01-06T22:49:40.648Z,8.45
2023-01-06T22:52:08.770Z,7.68
2023-01-06T22:54:36.913Z,7.32
2023-01-06T22:57:05.342Z,7.97
2023-01-06T22:59:33.504Z,7.00
2023-01-06T23:02:01.913Z,7.13
2023-01-06T23:04:31.731Z,6.95
2023-01-06T23:07:02.280Z,6.85
2023-01-06T23:09:30.411Z,6.72
2023-01-06T23:11:58.717Z,7.22
2023-01-06T23:14:26.976Z,7.22
2023-01-06T23:16:55.297Z,7.95
2023-01-06T23:19:25.444Z,7.45
2023-01-06T23:21:55.123Z,7.50
2023-01-06T23:24:23.399Z,7.70
2023-01-06T23:26:51.598Z,8.32
2023-01-06T23:29:19.909Z,9.35
2023-01-06T23:31:48.298Z,9.32
2023-01-06T23:34:18.770Z,10.55
2023-01-06T23:36:47.168Z,10.50
2023-01-06T23:39:18.067Z,10.80
2023-01-06T23:41:46.426Z,11.20
2023-01-06T23:44:16.686Z,11.80
2023-01-06T23:46:45.707Z,12.20
2023-01-06T23:49:15.812Z,13.45
2023-01-06T23:51:45.243Z,13.50
2023-01-06T23:54:13.801Z,14.48
2023-01-06T23:56:43.408Z,14.57
2023-01-06T23:59:13.486Z,14.57
